sensor_id;sensor_type;location;lat;lon;timestamp;P1;durP1;ratioP1;P2;durP2;ratioP2
36253;SDS011;22291;52.250;21.228;2023-12-14T00:00:05;74.27;;;32.95;;
36253;SDS011;22291;52.250;21.228;2023-12-14T00:02:38;77.85;;;32.33;;
36253;SDS011;22291;52.250;21.228;2023-12-14T00:05:05;76.40;;;33.60;;
36253;SDS011;22291;52.250;21.228;2023-12-14T00:07:33;79.97;;;34.13;;
36253;SDS011;22291;52.250;21.228;2023-12-14T00:10:00;71.45;;;31.73;;
36253;SDS011;22291;52.250;21.228;2023-12-14T00:12:29;73.50;;;33.20;;
36253;SDS011;22291;52.250;21.228;2023-12-14T00:14:56;68.50;;;32.03;;
36253;SDS011;22291;52.250;21.228;2023-12-14T00:17:23;71.50;;;31.82;;
36253;SDS011;22291;52.250;21.228;2023-12-14T00:19:51;184.18;;;107.40;;
36253;SDS011;22291;52.250;21.228;2023-12-14T00:22:17;204.82;;;110.12;;
36253;SDS011;22291;52.250;21.228;2023-12-14T00:24:44;99.52;;;48.20;;
36253;SDS011;22291;52.250;21.228;2023-12-14T00:27:12;110.17;;;54.98;;
36253;SDS011;22291;52.250;21.228;2023-12-14T00:29:38;67.30;;;33.02;;
36253;SDS011;22291;52.250;21.228;2023-12-14T00:32:06;69.05;;;29.67;;
36253;SDS011;22291;52.250;21.228;2023-12-14T00:34:33;70.37;;;30.35;;
36253;SDS011;22291;52.250;21.228;2023-12-14T00:36:59;67.37;;;29.85;;
36253;SDS011;22291;52.250;21.228;2023-12-14T00:39:26;70.47;;;29.63;;
36253;SDS011;22291;52.250;21.228;2023-12-14T00:41:53;67.95;;;28.92;;
36253;SDS011;22291;52.250;21.228;2023-12-14T00:44:20;67.50;;;29.27;;
36253;SDS011;22291;52.250;21.228;2023-12-14T00:46:47;64.50;;;29.40;;
36253;SDS011;22291;52.250;21.228;2023-12-14T00:49:13;68.85;;;29.75;;
36253;SDS011;22291;52.250;21.228;2023-12-14T00:51:43;64.85;;;27.95;;
36253;SDS011;22291;52.250;21.228;2023-12-14T00:54:09;66.37;;;29.37;;
36253;SDS011;22291;52.250;21.228;2023-12-14T00:56:37;71.45;;;31.48;;
36253;SDS011;22291;52.250;21.228;2023-12-14T00:59:04;67.97;;;29.15;;
36253;SDS011;22291;52.250;21.228;2023-12-14T01:01:31;64.65;;;29.90;;
36253;SDS011;22291;52.250;21.228;2023-12-14T01:03:58;67.87;;;29.02;;
36253;SDS011;22291;52.250;21.228;2023-12-14T01:06:25;65.03;;;28.52;;
36253;SDS011;22291;52.250;21.228;2023-12-14T01:08:53;66.25;;;27.45;;
36253;SDS011;22291;52.250;21.228;2023-12-14T01:11:20;58.48;;;26.35;;
36253;SDS011;22291;52.250;21.228;2023-12-14T01:13:47;61.88;;;27.13;;
36253;SDS011;22291;52.250;21.228;2023-12-14T01:16:14;61.05;;;26.48;;
36253;SDS011;22291;52.250;21.228;2023-12-14T01:18:40;59.83;;;27.30;;
36253;SDS011;22291;52.250;21.228;2023-12-14T01:21:08;60.03;;;27.10;;
36253;SDS011;22291;52.250;21.228;2023-12-14T01:23:35;59.27;;;27.10;;
36253;SDS011;22291;52.250;21.228;2023-12-14T01:26:04;59.08;;;27.50;;
36253;SDS011;22291;52.250;21.228;2023-12-14T01:28:32;59.50;;;24.77;;
36253;SDS011;22291;52.250;21.228;2023-12-14T01:30:59;54.98;;;24.25;;
36253;SDS011;22291;52.250;21.228;2023-12-14T01:33:26;58.28;;;25.48;;
36253;SDS011;22291;52.250;21.228;2023-12-14T01:35:53;55.92;;;25.48;;
36253;SDS011;22291;52.250;21.228;2023-12-14T01:38:20;59.45;;;26.37;;
36253;SDS011;22291;52.250;21.228;2023-12-14T01:40:48;55.88;;;25.35;;
36253;SDS011;22291;52.250;21.228;2023-12-14T01:43:14;57.40;;;25.08;;
36253;SDS011;22291;52.250;21.228;2023-12-14T01:45:42;53.30;;;23.65;;
36253;SDS011;22291;52.250;21.228;2023-12-14T01:48:09;51.90;;;23.73;;
36253;SDS011;22291;52.250;21.228;2023-12-14T01:50:35;49.10;;;24.23;;
36253;SDS011;22291;52.250;21.228;2023-12-14T01:53:03;52.38;;;24.35;;
36253;SDS011;22291;52.250;21.228;2023-12-14T01:55:31;59.15;;;24.55;;
36253;SDS011;22291;52.250;21.228;2023-12-14T01:57:59;56.73;;;25.68;;
36253;SDS011;22291;52.250;21.228;2023-12-14T02:03:32;58.45;;;24.95;;
36253;SDS011;22291;52.250;21.228;2023-12-14T02:05:59;59.55;;;24.63;;
36253;SDS011;22291;52.250;21.228;2023-12-14T02:08:27;58.63;;;24.65;;
36253;SDS011;22291;52.250;21.228;2023-12-14T02:10:55;50.03;;;23.00;;
36253;SDS011;22291;52.250;21.228;2023-12-14T02:13:22;54.30;;;24.30;;
36253;SDS011;22291;52.250;21.228;2023-12-14T02:15:51;55.03;;;25.00;;
36253;SDS011;22291;52.250;21.228;2023-12-14T02:18:19;54.00;;;23.35;;
36253;SDS011;22291;52.250;21.228;2023-12-14T02:20:46;52.45;;;24.02;;
36253;SDS011;22291;52.250;21.228;2023-12-14T02:23:14;56.00;;;24.45;;
36253;SDS011;22291;52.250;21.228;2023-12-14T02:25:42;54.38;;;23.40;;
36253;SDS011;22291;52.250;21.228;2023-12-14T02:28:09;53.68;;;23.40;;
36253;SDS011;22291;52.250;21.228;2023-12-14T02:30:37;63.35;;;24.20;;
36253;SDS011;22291;52.250;21.228;2023-12-14T02:33:04;60.00;;;24.65;;
36253;SDS011;22291;52.250;21.228;2023-12-14T02:35:30;54.20;;;24.05;;
36253;SDS011;22291;52.250;21.228;2023-12-14T02:37:57;57.90;;;24.35;;
36253;SDS011;22291;52.250;21.228;2023-12-14T02:40:24;53.17;;;22.35;;
36253;SDS011;22291;52.250;21.228;2023-12-14T02:42:50;59.42;;;23.50;;
36253;SDS011;22291;52.250;21.228;2023-12-14T02:45:17;54.40;;;23.27;;
36253;SDS011;22291;52.250;21.228;2023-12-14T02:47:44;50.98;;;22.48;;
36253;SDS011;22291;52.250;21.228;2023-12-14T02:50:14;55.67;;;25.15;;
36253;SDS011;22291;52.250;21.228;2023-12-14T02:52:42;58.42;;;23.70;;
36253;SDS011;22291;52.250;21.228;2023-12-14T02:55:09;56.45;;;23.75;;
36253;SDS011;22291;52.250;21.228;2023-12-14T02:57:36;57.27;;;24.10;;
36253;SDS011;22291;52.250;21.228;2023-12-14T03:00:03;60.92;;;23.25;;
36253;SDS011;22291;52.250;21.228;2023-12-14T03:02:32;59.95;;;24.15;;
36253;SDS011;22291;52.250;21.228;2023-12-14T03:04:58;62.33;;;26.15;;
36253;SDS011;22291;52.250;21.228;2023-12-14T03:07:26;65.65;;;24.37;;
36253;SDS011;22291;52.250;21.228;2023-12-14T03:09:53;59.50;;;25.23;;
36253;SDS011;22291;52.250;21.228;2023-12-14T03:12:21;60.12;;;23.73;;
36253;SDS011;22291;52.250;21.228;2023-12-14T03:14:47;68.90;;;24.92;;
36253;SDS011;22291;52.250;21.228;2023-12-14T03:17:14;70.97;;;25.97;;
36253;SDS011;22291;52.250;21.228;2023-12-14T03:19:43;73.45;;;27.20;;
36253;SDS011;22291;52.250;21.228;2023-12-14T03:22:10;61.42;;;24.82;;
36253;SDS011;22291;52.250;21.228;2023-12-14T03:24:37;62.50;;;23.92;;
36253;SDS011;22291;52.250;21.228;2023-12-14T03:27:04;64.53;;;25.00;;
36253;SDS011;22291;52.250;21.228;2023-12-14T03:29:32;58.10;;;22.45;;
36253;SDS011;22291;52.250;21.228;2023-12-14T03:31:59;59.10;;;23.62;;
36253;SDS011;22291;52.250;21.228;2023-12-14T03:34:26;62.03;;;23.87;;
36253;SDS011;22291;52.250;21.228;2023-12-14T03:36:53;60.15;;;23.07;;
36253;SDS011;22291;52.250;21.228;2023-12-14T03:39:20;57.00;;;22.75;;
36253;SDS011;22291;52.250;21.228;2023-12-14T03:41:47;59.85;;;22.80;;
36253;SDS011;22291;52.250;21.228;2023-12-14T03:44:15;62.10;;;22.65;;
36253;SDS011;22291;52.250;21.228;2023-12-14T03:46:42;56.30;;;23.15;;
36253;SDS011;22291;52.250;21.228;2023-12-14T03:49:11;51.35;;;20.75;;
36253;SDS011;22291;52.250;21.228;2023-12-14T03:51:38;51.23;;;21.80;;
36253;SDS011;22291;52.250;21.228;2023-12-14T03:54:06;54.23;;;21.80;;
36253;SDS011;22291;52.250;21.228;2023-12-14T03:56:33;54.27;;;22.00;;
36253;SDS011;22291;52.250;21.228;2023-12-14T03:59:00;56.00;;;22.30;;
36253;SDS011;22291;52.250;21.228;2023-12-14T04:01:29;54.80;;;20.95;;
36253;SDS011;22291;52.250;21.228;2023-12-14T04:03:55;58.83;;;23.10;;
36253;SDS011;22291;52.250;21.228;2023-12-14T04:06:24;54.98;;;21.90;;
36253;SDS011;22291;52.250;21.228;2023-12-14T04:08:53;52.62;;;20.77;;
36253;SDS011;22291;52.250;21.228;2023-12-14T04:11:21;52.38;;;21.00;;
36253;SDS011;22291;52.250;21.228;2023-12-14T04:13:51;60.58;;;21.97;;
36253;SDS011;22291;52.250;21.228;2023-12-14T04:16:20;56.50;;;22.48;;
36253;SDS011;22291;52.250;21.228;2023-12-14T04:18:48;56.33;;;22.20;;
36253;SDS011;22291;52.250;21.228;2023-12-14T04:21:17;53.60;;;21.93;;
36253;SDS011;22291;52.250;21.228;2023-12-14T04:23:46;61.02;;;22.35;;
36253;SDS011;22291;52.250;21.228;2023-12-14T04:26:14;55.95;;;21.50;;
36253;SDS011;22291;52.250;21.228;2023-12-14T04:28:42;53.23;;;22.65;;
36253;SDS011;22291;52.250;21.228;2023-12-14T04:31:12;59.83;;;21.65;;
36253;SDS011;22291;52.250;21.228;2023-12-14T04:33:41;56.73;;;21.65;;
36253;SDS011;22291;52.250;21.228;2023-12-14T04:36:10;57.53;;;21.05;;
36253;SDS011;22291;52.250;21.228;2023-12-14T04:38:36;57.60;;;22.25;;
36253;SDS011;22291;52.250;21.228;2023-12-14T04:41:03;55.48;;;21.62;;
36253;SDS011;22291;52.250;21.228;2023-12-14T04:43:31;52.23;;;22.55;;
36253;SDS011;22291;52.250;21.228;2023-12-14T04:46:00;56.68;;;21.27;;
36253;SDS011;22291;52.250;21.228;2023-12-14T04:48:27;57.90;;;20.63;;
36253;SDS011;22291;52.250;21.228;2023-12-14T04:50:55;52.50;;;19.90;;
36253;SDS011;22291;52.250;21.228;2023-12-14T04:53:22;61.53;;;23.38;;
36253;SDS011;22291;52.250;21.228;2023-12-14T04:55:48;56.58;;;21.73;;
36253;SDS011;22291;52.250;21.228;2023-12-14T04:58:16;50.35;;;20.00;;
36253;SDS011;22291;52.250;21.228;2023-12-14T05:00:45;55.33;;;21.60;;
36253;SDS011;22291;52.250;21.228;2023-12-14T05:03:13;60.10;;;21.37;;
36253;SDS011;22291;52.250;21.228;2023-12-14T05:05:42;53.98;;;20.62;;
36253;SDS011;22291;52.250;21.228;2023-12-14T05:08:10;58.23;;;20.60;;
36253;SDS011;22291;52.250;21.228;2023-12-14T05:10:39;55.98;;;21.52;;
36253;SDS011;22291;52.250;21.228;2023-12-14T05:13:06;56.60;;;21.65;;
36253;SDS011;22291;52.250;21.228;2023-12-14T05:15:35;53.42;;;21.40;;
36253;SDS011;22291;52.250;21.228;2023-12-14T05:18:03;50.75;;;20.32;;
36253;SDS011;22291;52.250;21.228;2023-12-14T05:20:31;57.03;;;20.62;;
36253;SDS011;22291;52.250;21.228;2023-12-14T05:22:59;54.33;;;22.27;;
36253;SDS011;22291;52.250;21.228;2023-12-14T05:25:26;55.58;;;21.45;;
36253;SDS011;22291;52.250;21.228;2023-12-14T05:27:54;62.53;;;23.98;;
36253;SDS011;22291;52.250;21.228;2023-12-14T05:30:22;57.43;;;21.97;;
36253;SDS011;22291;52.250;21.228;2023-12-14T05:32:49;54.93;;;22.37;;
36253;SDS011;22291;52.250;21.228;2023-12-14T05:35:16;60.67;;;23.40;;
36253;SDS011;22291;52.250;21.228;2023-12-14T05:37:43;59.03;;;21.57;;
36253;SDS011;22291;52.250;21.228;2023-12-14T05:40:13;60.98;;;22.30;;
36253;SDS011;22291;52.250;21.228;2023-12-14T05:42:41;66.27;;;23.07;;
36253;SDS011;22291;52.250;21.228;2023-12-14T05:45:10;60.50;;;22.07;;
36253;SDS011;22291;52.250;21.228;2023-12-14T05:47:37;57.23;;;22.10;;
36253;SDS011;22291;52.250;21.228;2023-12-14T05:50:08;58.87;;;21.90;;
36253;SDS011;22291;52.250;21.228;2023-12-14T05:52:36;52.78;;;21.60;;
36253;SDS011;22291;52.250;21.228;2023-12-14T05:55:04;53.78;;;22.05;;
36253;SDS011;22291;52.250;21.228;2023-12-14T05:57:34;49.30;;;20.68;;
36253;SDS011;22291;52.250;21.228;2023-12-14T06:00:03;57.55;;;22.40;;
36253;SDS011;22291;52.250;21.228;2023-12-14T06:02:33;54.15;;;20.52;;
36253;SDS011;22291;52.250;21.228;2023-12-14T06:07:32;51.55;;;20.48;;
36253;SDS011;22291;52.250;21.228;2023-12-14T06:09:59;61.35;;;21.90;;
36253;SDS011;22291;52.250;21.228;2023-12-14T06:12:27;48.52;;;21.27;;
36253;SDS011;22291;52.250;21.228;2023-12-14T06:14:55;54.77;;;21.40;;
36253;SDS011;22291;52.250;21.228;2023-12-14T06:17:21;54.20;;;21.52;;
36253;SDS011;22291;52.250;21.228;2023-12-14T06:19:49;54.77;;;21.05;;
36253;SDS011;22291;52.250;21.228;2023-12-14T06:22:18;58.83;;;21.95;;
36253;SDS011;22291;52.250;21.228;2023-12-14T06:24:46;48.20;;;20.57;;
36253;SDS011;22291;52.250;21.228;2023-12-14T06:27:14;53.38;;;20.30;;
36253;SDS011;22291;52.250;21.228;2023-12-14T06:29:41;49.95;;;19.67;;
36253;SDS011;22291;52.250;21.228;2023-12-14T06:32:08;45.92;;;19.57;;
36253;SDS011;22291;52.250;21.228;2023-12-14T06:34:36;48.45;;;19.15;;
36253;SDS011;22291;52.250;21.228;2023-12-14T06:37:04;46.65;;;18.57;;
36253;SDS011;22291;52.250;21.228;2023-12-14T06:42:01;40.98;;;17.80;;
36253;SDS011;22291;52.250;21.228;2023-12-14T06:44:28;50.63;;;19.98;;
36253;SDS011;22291;52.250;21.228;2023-12-14T06:46:56;45.60;;;19.00;;
36253;SDS011;22291;52.250;21.228;2023-12-14T06:49:25;44.13;;;18.95;;
36253;SDS011;22291;52.250;21.228;2023-12-14T06:51:53;50.33;;;20.15;;
36253;SDS011;22291;52.250;21.228;2023-12-14T06:54:23;46.65;;;19.75;;
36253;SDS011;22291;52.250;21.228;2023-12-14T06:56:50;49.08;;;20.08;;
36253;SDS011;22291;52.250;21.228;2023-12-14T06:59:16;45.60;;;19.95;;
36253;SDS011;22291;52.250;21.228;2023-12-14T07:01:46;48.65;;;19.85;;
36253;SDS011;22291;52.250;21.228;2023-12-14T07:04:12;49.23;;;19.98;;
36253;SDS011;22291;52.250;21.228;2023-12-14T07:06:44;46.35;;;19.40;;
36253;SDS011;22291;52.250;21.228;2023-12-14T07:09:21;45.52;;;20.02;;
36253;SDS011;22291;52.250;21.228;2023-12-14T07:11:47;47.17;;;19.77;;
36253;SDS011;22291;52.250;21.228;2023-12-14T07:14:15;44.98;;;19.40;;
36253;SDS011;22291;52.250;21.228;2023-12-14T07:16:43;45.43;;;19.55;;
36253;SDS011;22291;52.250;21.228;2023-12-14T07:19:11;44.53;;;19.50;;
36253;SDS011;22291;52.250;21.228;2023-12-14T07:21:38;46.83;;;20.55;;
36253;SDS011;22291;52.250;21.228;2023-12-14T07:24:07;46.88;;;18.60;;
36253;SDS011;22291;52.250;21.228;2023-12-14T07:26:35;51.00;;;22.87;;
36253;SDS011;22291;52.250;21.228;2023-12-14T07:29:02;52.33;;;22.30;;
36253;SDS011;22291;52.250;21.228;2023-12-14T07:31:28;52.17;;;22.45;;
36253;SDS011;22291;52.250;21.228;2023-12-14T07:33:56;50.25;;;21.48;;
36253;SDS011;22291;52.250;21.228;2023-12-14T07:36:24;44.67;;;20.70;;
36253;SDS011;22291;52.250;21.228;2023-12-14T07:38:51;45.55;;;19.25;;
36253;SDS011;22291;52.250;21.228;2023-12-14T07:41:21;52.30;;;21.20;;
36253;SDS011;22291;52.250;21.228;2023-12-14T07:43:49;49.03;;;19.65;;
36253;SDS011;22291;52.250;21.228;2023-12-14T07:46:16;46.95;;;20.02;;
36253;SDS011;22291;52.250;21.228;2023-12-14T07:48:43;43.15;;;19.25;;
36253;SDS011;22291;52.250;21.228;2023-12-14T07:51:10;49.35;;;20.20;;
36253;SDS011;22291;52.250;21.228;2023-12-14T07:53:38;42.10;;;20.02;;
36253;SDS011;22291;52.250;21.228;2023-12-14T07:56:06;59.33;;;22.77;;
36253;SDS011;22291;52.250;21.228;2023-12-14T07:58:35;67.05;;;27.98;;
36253;SDS011;22291;52.250;21.228;2023-12-14T08:01:03;82.42;;;35.08;;
36253;SDS011;22291;52.250;21.228;2023-12-14T08:03:30;93.50;;;38.25;;
36253;SDS011;22291;52.250;21.228;2023-12-14T08:06:00;101.27;;;39.80;;
36253;SDS011;22291;52.250;21.228;2023-12-14T08:08:27;99.55;;;38.88;;
36253;SDS011;22291;52.250;21.228;2023-12-14T08:10:57;113.75;;;46.20;;
36253;SDS011;22291;52.250;21.228;2023-12-14T08:15:52;108.30;;;47.38;;
36253;SDS011;22291;52.250;21.228;2023-12-14T08:18:22;97.15;;;42.33;;
36253;SDS011;22291;52.250;21.228;2023-12-14T08:20:50;74.05;;;35.03;;
36253;SDS011;22291;52.250;21.228;2023-12-14T08:23:20;63.05;;;26.23;;
36253;SDS011;22291;52.250;21.228;2023-12-14T08:25:46;58.52;;;25.52;;
36253;SDS011;22291;52.250;21.228;2023-12-14T08:28:14;60.40;;;25.48;;
36253;SDS011;22291;52.250;21.228;2023-12-14T08:30:43;51.70;;;24.82;;
36253;SDS011;22291;52.250;21.228;2023-12-14T08:33:11;53.73;;;25.27;;
36253;SDS011;22291;52.250;21.228;2023-12-14T08:35:41;50.52;;;23.05;;
36253;SDS011;22291;52.250;21.228;2023-12-14T08:38:08;50.52;;;21.20;;
36253;SDS011;22291;52.250;21.228;2023-12-14T08:40:38;38.83;;;16.05;;
36253;SDS011;22291;52.250;21.228;2023-12-14T08:43:05;35.40;;;15.40;;
36253;SDS011;22291;52.250;21.228;2023-12-14T08:45:35;39.23;;;15.63;;
36253;SDS011;22291;52.250;21.228;2023-12-14T08:48:04;33.18;;;16.35;;
36253;SDS011;22291;52.250;21.228;2023-12-14T08:50:31;40.98;;;17.17;;
36253;SDS011;22291;52.250;21.228;2023-12-14T08:52:58;37.60;;;16.17;;
36253;SDS011;22291;52.250;21.228;2023-12-14T08:55:27;42.70;;;18.67;;
36253;SDS011;22291;52.250;21.228;2023-12-14T08:57:54;47.35;;;22.17;;
36253;SDS011;22291;52.250;21.228;2023-12-14T09:00:21;49.10;;;22.55;;
36253;SDS011;22291;52.250;21.228;2023-12-14T09:02:50;48.75;;;22.10;;
36253;SDS011;22291;52.250;21.228;2023-12-14T09:05:17;51.80;;;22.42;;
36253;SDS011;22291;52.250;21.228;2023-12-14T09:07:47;52.53;;;22.82;;
36253;SDS011;22291;52.250;21.228;2023-12-14T09:10:14;44.40;;;22.75;;
36253;SDS011;22291;52.250;21.228;2023-12-14T09:12:40;50.98;;;23.27;;
36253;SDS011;22291;52.250;21.228;2023-12-14T09:15:07;51.05;;;23.65;;
36253;SDS011;22291;52.250;21.228;2023-12-14T09:17:36;49.40;;;23.10;;
36253;SDS011;22291;52.250;21.228;2023-12-14T09:20:02;45.25;;;21.25;;
36253;SDS011;22291;52.250;21.228;2023-12-14T09:22:32;49.05;;;23.60;;
36253;SDS011;22291;52.250;21.228;2023-12-14T09:24:59;53.50;;;22.95;;
36253;SDS011;22291;52.250;21.228;2023-12-14T09:27:26;54.48;;;25.17;;
36253;SDS011;22291;52.250;21.228;2023-12-14T09:29:52;47.25;;;23.07;;
36253;SDS011;22291;52.250;21.228;2023-12-14T09:32:19;47.95;;;21.87;;
36253;SDS011;22291;52.250;21.228;2023-12-14T09:34:46;58.28;;;24.05;;
36253;SDS011;22291;52.250;21.228;2023-12-14T09:37:13;50.88;;;23.45;;
36253;SDS011;22291;52.250;21.228;2023-12-14T09:39:40;54.75;;;22.50;;
36253;SDS011;22291;52.250;21.228;2023-12-14T09:42:06;51.70;;;22.37;;
36253;SDS011;22291;52.250;21.228;2023-12-14T09:44:34;50.73;;;22.58;;
36253;SDS011;22291;52.250;21.228;2023-12-14T09:47:03;45.63;;;21.17;;
36253;SDS011;22291;52.250;21.228;2023-12-14T09:49:33;49.63;;;20.72;;
36253;SDS011;22291;52.250;21.228;2023-12-14T09:52:02;47.25;;;22.65;;
36253;SDS011;22291;52.250;21.228;2023-12-14T09:54:30;46.80;;;21.57;;
36253;SDS011;22291;52.250;21.228;2023-12-14T09:56:57;46.63;;;22.65;;
36253;SDS011;22291;52.250;21.228;2023-12-14T09:59:23;43.38;;;19.95;;
36253;SDS011;22291;52.250;21.228;2023-12-14T10:01:50;36.90;;;18.48;;
36253;SDS011;22291;52.250;21.228;2023-12-14T10:04:19;41.77;;;18.82;;
36253;SDS011;22291;52.250;21.228;2023-12-14T10:06:49;36.33;;;17.60;;
36253;SDS011;22291;52.250;21.228;2023-12-14T10:09:22;34.18;;;17.00;;
36253;SDS011;22291;52.250;21.228;2023-12-14T10:11:49;32.45;;;17.98;;
36253;SDS011;22291;52.250;21.228;2023-12-14T10:14:23;32.40;;;16.60;;
36253;SDS011;22291;52.250;21.228;2023-12-14T10:16:52;33.50;;;17.70;;
36253;SDS011;22291;52.250;21.228;2023-12-14T10:19:19;34.05;;;16.85;;
36253;SDS011;22291;52.250;21.228;2023-12-14T10:21:48;30.52;;;15.78;;
36253;SDS011;22291;52.250;21.228;2023-12-14T10:24:17;29.35;;;16.50;;
36253;SDS011;22291;52.250;21.228;2023-12-14T10:26:47;28.35;;;16.45;;
36253;SDS011;22291;52.250;21.228;2023-12-14T10:29:16;31.00;;;16.52;;
36253;SDS011;22291;52.250;21.228;2023-12-14T10:31:45;31.40;;;16.20;;
36253;SDS011;22291;52.250;21.228;2023-12-14T10:34:14;31.42;;;16.57;;
36253;SDS011;22291;52.250;21.228;2023-12-14T10:36:41;31.17;;;16.55;;
36253;SDS011;22291;52.250;21.228;2023-12-14T10:39:11;31.15;;;15.13;;
36253;SDS011;22291;52.250;21.228;2023-12-14T10:41:40;28.17;;;16.10;;
36253;SDS011;22291;52.250;21.228;2023-12-14T10:44:17;34.60;;;18.20;;
36253;SDS011;22291;52.250;21.228;2023-12-14T10:46:47;36.20;;;18.17;;
36253;SDS011;22291;52.250;21.228;2023-12-14T10:49:16;30.17;;;16.67;;
36253;SDS011;22291;52.250;21.228;2023-12-14T10:51:44;32.67;;;17.52;;
36253;SDS011;22291;52.250;21.228;2023-12-14T10:54:13;32.15;;;16.77;;
36253;SDS011;22291;52.250;21.228;2023-12-14T10:56:42;26.15;;;16.65;;
36253;SDS011;22291;52.250;21.228;2023-12-14T10:59:08;28.20;;;16.32;;
36253;SDS011;22291;52.250;21.228;2023-12-14T11:01:35;27.42;;;16.27;;
36253;SDS011;22291;52.250;21.228;2023-12-14T11:04:05;26.30;;;15.38;;
36253;SDS011;22291;52.250;21.228;2023-12-14T11:06:38;27.70;;;15.28;;
36253;SDS011;22291;52.250;21.228;2023-12-14T11:09:08;25.90;;;14.90;;
36253;SDS011;22291;52.250;21.228;2023-12-14T11:14:26;26.68;;;14.90;;
36253;SDS011;22291;52.250;21.228;2023-12-14T11:16:54;29.60;;;15.68;;
36253;SDS011;22291;52.250;21.228;2023-12-14T11:19:24;23.80;;;13.95;;
36253;SDS011;22291;52.250;21.228;2023-12-14T11:24:32;31.85;;;14.35;;
36253;SDS011;22291;52.250;21.228;2023-12-14T11:27:04;26.60;;;14.15;;
36253;SDS011;22291;52.250;21.228;2023-12-14T11:29:37;25.00;;;13.40;;
36253;SDS011;22291;52.250;21.228;2023-12-14T11:32:07;27.82;;;15.00;;
36253;SDS011;22291;52.250;21.228;2023-12-14T11:34:34;25.55;;;13.78;;
36253;SDS011;22291;52.250;21.228;2023-12-14T11:37:00;23.73;;;13.88;;
36253;SDS011;22291;52.250;21.228;2023-12-14T11:39:31;24.90;;;14.60;;
36253;SDS011;22291;52.250;21.228;2023-12-14T11:42:01;24.00;;;14.03;;
36253;SDS011;22291;52.250;21.228;2023-12-14T11:44:30;25.15;;;14.70;;
36253;SDS011;22291;52.250;21.228;2023-12-14T11:46:56;24.27;;;13.25;;
36253;SDS011;22291;52.250;21.228;2023-12-14T11:49:26;25.48;;;13.88;;
36253;SDS011;22291;52.250;21.228;2023-12-14T11:51:54;24.77;;;13.38;;
36253;SDS011;22291;52.250;21.228;2023-12-14T11:54:23;30.15;;;14.38;;
36253;SDS011;22291;52.250;21.228;2023-12-14T11:56:52;25.88;;;14.23;;
36253;SDS011;22291;52.250;21.228;2023-12-14T11:59:20;25.52;;;13.75;;
36253;SDS011;22291;52.250;21.228;2023-12-14T12:01:56;28.00;;;13.93;;
36253;SDS011;22291;52.250;21.228;2023-12-14T12:04:26;24.32;;;13.40;;
36253;SDS011;22291;52.250;21.228;2023-12-14T12:07:04;22.17;;;13.13;;
36253;SDS011;22291;52.250;21.228;2023-12-14T12:09:34;30.57;;;15.58;;
36253;SDS011;22291;52.250;21.228;2023-12-14T12:12:09;28.12;;;14.55;;
36253;SDS011;22291;52.250;21.228;2023-12-14T12:14:38;31.05;;;16.32;;
36253;SDS011;22291;52.250;21.228;2023-12-14T12:17:08;36.38;;;16.85;;
36253;SDS011;22291;52.250;21.228;2023-12-14T12:19:37;36.13;;;17.10;;
36253;SDS011;22291;52.250;21.228;2023-12-14T12:22:04;38.50;;;16.95;;
36253;SDS011;22291;52.250;21.228;2023-12-14T12:24:30;35.48;;;17.37;;
36253;SDS011;22291;52.250;21.228;2023-12-14T12:26:57;33.58;;;17.07;;
36253;SDS011;22291;52.250;21.228;2023-12-14T12:29:24;40.38;;;17.60;;
36253;SDS011;22291;52.250;21.228;2023-12-14T12:31:52;36.98;;;18.15;;
36253;SDS011;22291;52.250;21.228;2023-12-14T12:34:20;43.58;;;17.95;;
36253;SDS011;22291;52.250;21.228;2023-12-14T12:36:47;39.78;;;17.92;;
36253;SDS011;22291;52.250;21.228;2023-12-14T12:39:13;45.12;;;19.75;;
36253;SDS011;22291;52.250;21.228;2023-12-14T12:41:42;37.75;;;17.48;;
36253;SDS011;22291;52.250;21.228;2023-12-14T12:44:09;47.80;;;19.37;;
36253;SDS011;22291;52.250;21.228;2023-12-14T12:46:35;41.50;;;18.42;;
36253;SDS011;22291;52.250;21.228;2023-12-14T12:49:02;37.90;;;17.37;;
36253;SDS011;22291;52.250;21.228;2023-12-14T12:51:31;40.95;;;17.60;;
36253;SDS011;22291;52.250;21.228;2023-12-14T12:54:01;37.78;;;18.50;;
36253;SDS011;22291;52.250;21.228;2023-12-14T12:56:29;42.15;;;18.70;;
36253;SDS011;22291;52.250;21.228;2023-12-14T12:58:57;38.40;;;16.93;;
36253;SDS011;22291;52.250;21.228;2023-12-14T13:01:25;38.33;;;17.17;;
36253;SDS011;22291;52.250;21.228;2023-12-14T13:03:56;29.37;;;15.32;;
36253;SDS011;22291;52.250;21.228;2023-12-14T13:06:25;32.28;;;15.75;;
36253;SDS011;22291;52.250;21.228;2023-12-14T13:08:54;29.42;;;15.90;;
36253;SDS011;22291;52.250;21.228;2023-12-14T13:11:20;35.30;;;15.83;;
36253;SDS011;22291;52.250;21.228;2023-12-14T13:13:48;29.05;;;14.73;;
36253;SDS011;22291;52.250;21.228;2023-12-14T13:16:16;33.25;;;15.10;;
36253;SDS011;22291;52.250;21.228;2023-12-14T13:18:43;32.98;;;14.78;;
36253;SDS011;22291;52.250;21.228;2023-12-14T13:21:13;26.10;;;13.93;;
36253;SDS011;22291;52.250;21.228;2023-12-14T13:23:40;30.17;;;14.90;;
36253;SDS011;22291;52.250;21.228;2023-12-14T13:26:06;30.70;;;13.90;;
36253;SDS011;22291;52.250;21.228;2023-12-14T13:28:34;30.80;;;15.58;;
36253;SDS011;22291;52.250;21.228;2023-12-14T13:31:01;31.30;;;15.38;;
36253;SDS011;22291;52.250;21.228;2023-12-14T13:33:30;27.22;;;13.70;;
36253;SDS011;22291;52.250;21.228;2023-12-14T13:35:58;31.23;;;15.03;;
36253;SDS011;22291;52.250;21.228;2023-12-14T13:38:24;29.00;;;15.45;;
36253;SDS011;22291;52.250;21.228;2023-12-14T13:40:51;29.02;;;15.40;;
36253;SDS011;22291;52.250;21.228;2023-12-14T13:43:18;31.52;;;14.33;;
36253;SDS011;22291;52.250;21.228;2023-12-14T13:45:44;25.02;;;13.38;;
36253;SDS011;22291;52.250;21.228;2023-12-14T13:48:11;33.38;;;14.85;;
36253;SDS011;22291;52.250;21.228;2023-12-14T13:50:38;28.35;;;13.68;;
36253;SDS011;22291;52.250;21.228;2023-12-14T13:53:04;27.80;;;14.40;;
36253;SDS011;22291;52.250;21.228;2023-12-14T13:55:31;37.48;;;19.62;;
36253;SDS011;22291;52.250;21.228;2023-12-14T13:57:58;192.62;;;132.03;;
36253;SDS011;22291;52.250;21.228;2023-12-14T14:00:26;48.08;;;22.58;;
36253;SDS011;22291;52.250;21.228;2023-12-14T14:02:53;33.13;;;14.85;;
36253;SDS011;22291;52.250;21.228;2023-12-14T14:05:20;33.23;;;15.55;;
36253;SDS011;22291;52.250;21.228;2023-12-14T14:07:47;34.40;;;15.45;;
36253;SDS011;22291;52.250;21.228;2023-12-14T14:10:14;34.73;;;16.80;;
36253;SDS011;22291;52.250;21.228;2023-12-14T14:12:40;38.58;;;16.67;;
36253;SDS011;22291;52.250;21.228;2023-12-14T14:15:07;38.98;;;17.70;;
36253;SDS011;22291;52.250;21.228;2023-12-14T14:17:35;42.00;;;18.20;;
36253;SDS011;22291;52.250;21.228;2023-12-14T14:20:02;49.53;;;21.37;;
36253;SDS011;22291;52.250;21.228;2023-12-14T14:22:30;48.83;;;20.85;;
36253;SDS011;22291;52.250;21.228;2023-12-14T14:24:57;40.28;;;18.90;;
36253;SDS011;22291;52.250;21.228;2023-12-14T14:27:24;44.35;;;19.52;;